sensor_id;sensor_type;location;lat;lon;timestamp;P1;durP1;ratioP1;P2;durP2;ratioP2
6013;SDS011;3035;49.928;8.410;2022-11-30T00:02:13;26.00;;;15.07;;
6013;SDS011;3035;49.928;8.410;2022-11-30T00:04:41;32.87;;;15.77;;
6013;SDS011;3035;49.928;8.410;2022-11-30T00:07:09;33.50;;;15.77;;
6013;SDS011;3035;49.928;8.410;2022-11-30T00:09:37;36.80;;;16.30;;
6013;SDS011;3035;49.928;8.410;2022-11-30T00:12:06;26.97;;;15.80;;
6013;SDS011;3035;49.928;8.410;2022-11-30T00:14:35;33.60;;;17.80;;
6013;SDS011;3035;49.928;8.410;2022-11-30T00:17:04;31.80;;;15.50;;
6013;SDS011;3035;49.928;8.410;2022-11-30T00:19:32;29.13;;;16.07;;
6013;SDS011;3035;49.928;8.410;2022-11-30T00:22:00;24.97;;;14.60;;
6013;SDS011;3035;49.928;8.410;2022-11-30T00:24:29;32.60;;;15.90;;
6013;SDS011;3035;49.928;8.410;2022-11-30T00:26:58;30.37;;;14.70;;
6013;SDS011;3035;49.928;8.410;2022-11-30T00:29:26;26.00;;;14.23;;
6013;SDS011;3035;49.928;8.410;2022-11-30T00:31:54;29.67;;;15.37;;
6013;SDS011;3035;49.928;8.410;2022-11-30T00:34:22;27.20;;;14.50;;
6013;SDS011;3035;49.928;8.410;2022-11-30T00:36:51;26.60;;;14.53;;
6013;SDS011;3035;49.928;8.410;2022-11-30T00:39:19;36.40;;;14.60;;
6013;SDS011;3035;49.928;8.410;2022-11-30T00:41:47;27.87;;;12.97;;
6013;SDS011;3035;49.928;8.410;2022-11-30T00:44:16;31.23;;;14.30;;
6013;SDS011;3035;49.928;8.410;2022-11-30T00:46:45;29.23;;;14.30;;
6013;SDS011;3035;49.928;8.410;2022-11-30T00:49:14;25.00;;;13.90;;
6013;SDS011;3035;49.928;8.410;2022-11-30T00:51:42;31.37;;;14.57;;
6013;SDS011;3035;49.928;8.410;2022-11-30T00:54:10;39.90;;;14.60;;
6013;SDS011;3035;49.928;8.410;2022-11-30T00:56:39;29.07;;;15.03;;
6013;SDS011;3035;49.928;8.410;2022-11-30T00:59:07;32.63;;;15.37;;
6013;SDS011;3035;49.928;8.410;2022-11-30T01:01:35;35.20;;;16.30;;
6013;SDS011;3035;49.928;8.410;2022-11-30T01:04:04;37.63;;;14.90;;
6013;SDS011;3035;49.928;8.410;2022-11-30T01:06:33;39.77;;;17.00;;
6013;SDS011;3035;49.928;8.410;2022-11-30T01:09:02;36.43;;;15.90;;
6013;SDS011;3035;49.928;8.410;2022-11-30T01:11:31;38.00;;;14.90;;
6013;SDS011;3035;49.928;8.410;2022-11-30T01:14:00;43.03;;;15.83;;
6013;SDS011;3035;49.928;8.410;2022-11-30T01:16:29;37.40;;;15.70;;
6013;SDS011;3035;49.928;8.410;2022-11-30T01:18:56;29.70;;;15.23;;
6013;SDS011;3035;49.928;8.410;2022-11-30T01:21:25;43.83;;;15.00;;
6013;SDS011;3035;49.928;8.410;2022-11-30T01:23:53;41.80;;;15.23;;
6013;SDS011;3035;49.928;8.410;2022-11-30T01:26:21;39.47;;;16.70;;
6013;SDS011;3035;49.928;8.410;2022-11-30T01:28:50;42.10;;;16.47;;
6013;SDS011;3035;49.928;8.410;2022-11-30T01:31:18;41.97;;;16.03;;
6013;SDS011;3035;49.928;8.410;2022-11-30T01:33:48;44.03;;;15.43;;
6013;SDS011;3035;49.928;8.410;2022-11-30T01:36:17;38.20;;;14.73;;
6013;SDS011;3035;49.928;8.410;2022-11-30T01:38:46;33.50;;;15.30;;
6013;SDS011;3035;49.928;8.410;2022-11-30T01:41:13;41.20;;;16.00;;
6013;SDS011;3035;49.928;8.410;2022-11-30T01:43:42;43.93;;;15.40;;
6013;SDS011;3035;49.928;8.410;2022-11-30T01:46:16;49.77;;;15.63;;
6013;SDS011;3035;49.928;8.410;2022-11-30T01:49:08;42.00;;;16.23;;
6013;SDS011;3035;49.928;8.410;2022-11-30T01:51:52;40.20;;;15.63;;
6013;SDS011;3035;49.928;8.410;2022-11-30T01:54:35;44.80;;;18.23;;
6013;SDS011;3035;49.928;8.410;2022-11-30T01:57:08;41.07;;;16.20;;
6013;SDS011;3035;49.928;8.410;2022-11-30T01:59:41;39.27;;;18.30;;
6013;SDS011;3035;49.928;8.410;2022-11-30T02:02:09;42.77;;;16.70;;
6013;SDS011;3035;49.928;8.410;2022-11-30T02:04:37;45.20;;;16.93;;
6013;SDS011;3035;49.928;8.410;2022-11-30T02:07:06;50.10;;;17.97;;
6013;SDS011;3035;49.928;8.410;2022-11-30T02:09:38;50.73;;;18.30;;
6013;SDS011;3035;49.928;8.410;2022-11-30T02:12:04;49.27;;;19.07;;
6013;SDS011;3035;49.928;8.410;2022-11-30T02:14:38;48.57;;;18.30;;
6013;SDS011;3035;49.928;8.410;2022-11-30T02:17:12;46.73;;;17.77;;
6013;SDS011;3035;49.928;8.410;2022-11-30T02:19:55;43.50;;;18.10;;
6013;SDS011;3035;49.928;8.410;2022-11-30T02:22:40;45.10;;;19.27;;
6013;SDS011;3035;49.928;8.410;2022-11-30T02:25:26;43.53;;;18.50;;
6013;SDS011;3035;49.928;8.410;2022-11-30T02:28:08;61.30;;;20.17;;
6013;SDS011;3035;49.928;8.410;2022-11-30T02:30:52;46.43;;;17.60;;
6013;SDS011;3035;49.928;8.410;2022-11-30T02:33:23;42.20;;;17.10;;
6013;SDS011;3035;49.928;8.410;2022-11-30T02:35:51;45.33;;;16.57;;
6013;SDS011;3035;49.928;8.410;2022-11-30T02:38:18;39.60;;;16.27;;
6013;SDS011;3035;49.928;8.410;2022-11-30T02:40:48;50.97;;;18.10;;
6013;SDS011;3035;49.928;8.410;2022-11-30T02:43:17;37.00;;;17.07;;
6013;SDS011;3035;49.928;8.410;2022-11-30T02:45:48;37.60;;;17.30;;
6013;SDS011;3035;49.928;8.410;2022-11-30T02:48:26;48.77;;;18.83;;
6013;SDS011;3035;49.928;8.410;2022-11-30T02:50:57;38.73;;;16.33;;
6013;SDS011;3035;49.928;8.410;2022-11-30T02:53:25;41.33;;;16.90;;
6013;SDS011;3035;49.928;8.410;2022-11-30T02:55:54;43.63;;;16.93;;
6013;SDS011;3035;49.928;8.410;2022-11-30T02:58:23;39.47;;;16.70;;
6013;SDS011;3035;49.928;8.410;2022-11-30T03:00:51;44.07;;;18.07;;
6013;SDS011;3035;49.928;8.410;2022-11-30T03:03:20;39.13;;;17.00;;
6013;SDS011;3035;49.928;8.410;2022-11-30T03:05:50;40.30;;;16.87;;
6013;SDS011;3035;49.928;8.410;2022-11-30T03:08:17;43.60;;;15.90;;
6013;SDS011;3035;49.928;8.410;2022-11-30T03:10:46;38.17;;;16.50;;
6013;SDS011;3035;49.928;8.410;2022-11-30T03:13:14;46.83;;;17.17;;
6013;SDS011;3035;49.928;8.410;2022-11-30T03:15:42;42.77;;;17.30;;
6013;SDS011;3035;49.928;8.410;2022-11-30T03:18:10;42.40;;;17.07;;
6013;SDS011;3035;49.928;8.410;2022-11-30T03:20:39;43.40;;;17.30;;
6013;SDS011;3035;49.928;8.410;2022-11-30T03:23:08;47.97;;;17.57;;
6013;SDS011;3035;49.928;8.410;2022-11-30T03:25:36;40.20;;;18.57;;
6013;SDS011;3035;49.928;8.410;2022-11-30T03:28:04;42.13;;;16.83;;
6013;SDS011;3035;49.928;8.410;2022-11-30T03:30:33;64.43;;;17.97;;
6013;SDS011;3035;49.928;8.410;2022-11-30T03:33:01;47.53;;;17.33;;
6013;SDS011;3035;49.928;8.410;2022-11-30T03:35:29;41.43;;;16.80;;
6013;SDS011;3035;49.928;8.410;2022-11-30T03:37:57;41.47;;;17.10;;
6013;SDS011;3035;49.928;8.410;2022-11-30T03:40:26;39.70;;;17.27;;
6013;SDS011;3035;49.928;8.410;2022-11-30T03:42:54;50.37;;;19.57;;
6013;SDS011;3035;49.928;8.410;2022-11-30T03:45:23;62.33;;;19.80;;
6013;SDS011;3035;49.928;8.410;2022-11-30T03:47:51;54.77;;;18.73;;
6013;SDS011;3035;49.928;8.410;2022-11-30T03:50:20;53.97;;;18.10;;
6013;SDS011;3035;49.928;8.410;2022-11-30T03:52:49;47.13;;;17.67;;
6013;SDS011;3035;49.928;8.410;2022-11-30T03:55:18;45.07;;;17.20;;
6013;SDS011;3035;49.928;8.410;2022-11-30T03:57:47;41.00;;;17.00;;
6013;SDS011;3035;49.928;8.410;2022-11-30T04:00:16;37.10;;;15.70;;
6013;SDS011;3035;49.928;8.410;2022-11-30T04:02:47;39.13;;;17.17;;
6013;SDS011;3035;49.928;8.410;2022-11-30T04:05:16;56.07;;;19.37;;
6013;SDS011;3035;49.928;8.410;2022-11-30T04:07:45;45.10;;;16.07;;
6013;SDS011;3035;49.928;8.410;2022-11-30T04:10:13;51.47;;;16.90;;
6013;SDS011;3035;49.928;8.410;2022-11-30T04:12:42;50.43;;;18.30;;
6013;SDS011;3035;49.928;8.410;2022-11-30T04:15:10;50.70;;;17.07;;
6013;SDS011;3035;49.928;8.410;2022-11-30T04:17:39;50.40;;;17.50;;
6013;SDS011;3035;49.928;8.410;2022-11-30T04:20:07;43.80;;;18.67;;
6013;SDS011;3035;49.928;8.410;2022-11-30T04:22:36;50.97;;;17.70;;
6013;SDS011;3035;49.928;8.410;2022-11-30T04:25:05;38.47;;;17.93;;
6013;SDS011;3035;49.928;8.410;2022-11-30T04:27:34;65.03;;;18.97;;
6013;SDS011;3035;49.928;8.410;2022-11-30T04:30:04;38.10;;;15.83;;
6013;SDS011;3035;49.928;8.410;2022-11-30T04:32:34;48.57;;;17.40;;
6013;SDS011;3035;49.928;8.410;2022-11-30T04:35:02;46.17;;;18.17;;
6013;SDS011;3035;49.928;8.410;2022-11-30T04:37:31;48.27;;;17.27;;
6013;SDS011;3035;49.928;8.410;2022-11-30T04:39:59;60.40;;;17.90;;
6013;SDS011;3035;49.928;8.410;2022-11-30T04:42:28;52.97;;;16.57;;
6013;SDS011;3035;49.928;8.410;2022-11-30T04:44:57;53.50;;;18.17;;
6013;SDS011;3035;49.928;8.410;2022-11-30T04:47:25;50.77;;;18.03;;
6013;SDS011;3035;49.928;8.410;2022-11-30T04:49:54;43.57;;;17.40;;
6013;SDS011;3035;49.928;8.410;2022-11-30T04:52:22;63.83;;;19.80;;
6013;SDS011;3035;49.928;8.410;2022-11-30T04:54:50;51.43;;;18.20;;
6013;SDS011;3035;49.928;8.410;2022-11-30T04:57:19;60.47;;;18.80;;
6013;SDS011;3035;49.928;8.410;2022-11-30T04:59:47;46.23;;;17.97;;
6013;SDS011;3035;49.928;8.410;2022-11-30T05:02:16;45.80;;;18.67;;
6013;SDS011;3035;49.928;8.410;2022-11-30T05:04:45;40.83;;;17.13;;
6013;SDS011;3035;49.928;8.410;2022-11-30T05:07:14;58.33;;;19.70;;
6013;SDS011;3035;49.928;8.410;2022-11-30T05:09:42;49.77;;;19.37;;
6013;SDS011;3035;49.928;8.410;2022-11-30T05:12:10;53.90;;;19.80;;
6013;SDS011;3035;49.928;8.410;2022-11-30T05:14:39;45.93;;;17.37;;
6013;SDS011;3035;49.928;8.410;2022-11-30T05:17:07;63.20;;;19.10;;
6013;SDS011;3035;49.928;8.410;2022-11-30T05:19:35;51.33;;;17.87;;
6013;SDS011;3035;49.928;8.410;2022-11-30T05:22:04;53.50;;;18.07;;
6013;SDS011;3035;49.928;8.410;2022-11-30T05:24:33;58.07;;;19.13;;
6013;SDS011;3035;49.928;8.410;2022-11-30T05:27:01;64.83;;;20.20;;
6013;SDS011;3035;49.928;8.410;2022-11-30T05:29:29;62.37;;;19.40;;
6013;SDS011;3035;49.928;8.410;2022-11-30T05:31:57;54.03;;;17.40;;
6013;SDS011;3035;49.928;8.410;2022-11-30T05:34:27;61.87;;;18.50;;
6013;SDS011;3035;49.928;8.410;2022-11-30T05:36:56;53.87;;;16.53;;
6013;SDS011;3035;49.928;8.410;2022-11-30T05:39:24;54.00;;;18.67;;
6013;SDS011;3035;49.928;8.410;2022-11-30T05:41:52;62.77;;;19.83;;
6013;SDS011;3035;49.928;8.410;2022-11-30T05:44:21;48.60;;;15.93;;
6013;SDS011;3035;49.928;8.410;2022-11-30T05:46:49;56.57;;;18.30;;
6013;SDS011;3035;49.928;8.410;2022-11-30T05:49:18;45.57;;;16.90;;
6013;SDS011;3035;49.928;8.410;2022-11-30T05:51:48;58.07;;;16.83;;
6013;SDS011;3035;49.928;8.410;2022-11-30T05:54:17;51.47;;;17.50;;
6013;SDS011;3035;49.928;8.410;2022-11-30T05:56:45;52.67;;;18.30;;
6013;SDS011;3035;49.928;8.410;2022-11-30T05:59:14;47.30;;;16.87;;
6013;SDS011;3035;49.928;8.410;2022-11-30T06:01:42;51.67;;;18.07;;
6013;SDS011;3035;49.928;8.410;2022-11-30T06:04:11;52.23;;;19.03;;
6013;SDS011;3035;49.928;8.410;2022-11-30T06:06:39;58.53;;;17.23;;
6013;SDS011;3035;49.928;8.410;2022-11-30T06:09:08;48.03;;;19.10;;
6013;SDS011;3035;49.928;8.410;2022-11-30T06:11:36;50.77;;;17.77;;
6013;SDS011;3035;49.928;8.410;2022-11-30T06:14:04;50.30;;;19.20;;
6013;SDS011;3035;49.928;8.410;2022-11-30T06:16:32;37.83;;;16.80;;
6013;SDS011;3035;49.928;8.410;2022-11-30T06:19:01;60.63;;;18.57;;
6013;SDS011;3035;49.928;8.410;2022-11-30T06:21:29;58.87;;;17.30;;
6013;SDS011;3035;49.928;8.410;2022-11-30T06:23:58;47.23;;;17.50;;
6013;SDS011;3035;49.928;8.410;2022-11-30T06:26:26;48.83;;;16.70;;
6013;SDS011;3035;49.928;8.410;2022-11-30T06:28:54;41.60;;;14.63;;
6013;SDS011;3035;49.928;8.410;2022-11-30T06:31:22;53.73;;;15.60;;
6013;SDS011;3035;49.928;8.410;2022-11-30T06:33:54;41.77;;;16.53;;
6013;SDS011;3035;49.928;8.410;2022-11-30T06:36:20;53.80;;;16.37;;
6013;SDS011;3035;49.928;8.410;2022-11-30T06:38:49;54.90;;;19.57;;
6013;SDS011;3035;49.928;8.410;2022-11-30T06:41:17;54.60;;;16.00;;
6013;SDS011;3035;49.928;8.410;2022-11-30T06:43:46;48.77;;;16.90;;
6013;SDS011;3035;49.928;8.410;2022-11-30T06:46:15;49.80;;;18.73;;
6013;SDS011;3035;49.928;8.410;2022-11-30T06:48:46;46.70;;;16.30;;
6013;SDS011;3035;49.928;8.410;2022-11-30T06:51:12;43.90;;;15.40;;
6013;SDS011;3035;49.928;8.410;2022-11-30T06:53:40;49.77;;;16.30;;
6013;SDS011;3035;49.928;8.410;2022-11-30T06:56:08;49.40;;;16.10;;
6013;SDS011;3035;49.928;8.410;2022-11-30T06:58:37;49.37;;;17.10;;
6013;SDS011;3035;49.928;8.410;2022-11-30T07:01:07;46.53;;;18.97;;
6013;SDS011;3035;49.928;8.410;2022-11-30T07:03:34;45.57;;;18.10;;
6013;SDS011;3035;49.928;8.410;2022-11-30T07:06:05;58.17;;;19.20;;
6013;SDS011;3035;49.928;8.410;2022-11-30T07:08:33;52.10;;;19.87;;
6013;SDS011;3035;49.928;8.410;2022-11-30T07:11:01;49.50;;;17.43;;
6013;SDS011;3035;49.928;8.410;2022-11-30T07:13:29;52.50;;;17.10;;
6013;SDS011;3035;49.928;8.410;2022-11-30T07:15:57;52.60;;;18.13;;
6013;SDS011;3035;49.928;8.410;2022-11-30T07:18:26;47.93;;;15.57;;
6013;SDS011;3035;49.928;8.410;2022-11-30T07:20:57;45.17;;;18.20;;
6013;SDS011;3035;49.928;8.410;2022-11-30T07:23:23;44.97;;;16.00;;
6013;SDS011;3035;49.928;8.410;2022-11-30T07:25:59;41.87;;;16.27;;
6013;SDS011;3035;49.928;8.410;2022-11-30T07:28:34;41.97;;;15.80;;
6013;SDS011;3035;49.928;8.410;2022-11-30T07:31:11;57.17;;;16.60;;
6013;SDS011;3035;49.928;8.410;2022-11-30T07:33:35;46.07;;;17.80;;
6013;SDS011;3035;49.928;8.410;2022-11-30T07:36:04;53.63;;;17.10;;
6013;SDS011;3035;49.928;8.410;2022-11-30T07:38:34;60.20;;;18.93;;
6013;SDS011;3035;49.928;8.410;2022-11-30T07:41:02;44.07;;;17.40;;
6013;SDS011;3035;49.928;8.410;2022-11-30T07:43:30;48.87;;;18.73;;
6013;SDS011;3035;49.928;8.410;2022-11-30T07:46:00;50.77;;;18.80;;
6013;SDS011;3035;49.928;8.410;2022-11-30T07:48:28;44.33;;;17.10;;
6013;SDS011;3035;49.928;8.410;2022-11-30T07:51:00;52.30;;;18.27;;
6013;SDS011;3035;49.928;8.410;2022-11-30T07:53:31;43.17;;;17.70;;
6013;SDS011;3035;49.928;8.410;2022-11-30T07:56:00;59.17;;;21.37;;
6013;SDS011;3035;49.928;8.410;2022-11-30T07:58:29;61.10;;;22.27;;
6013;SDS011;3035;49.928;8.410;2022-11-30T08:01:02;63.03;;;24.10;;
6013;SDS011;3035;49.928;8.410;2022-11-30T08:03:32;62.33;;;22.60;;
6013;SDS011;3035;49.928;8.410;2022-11-30T08:06:02;54.70;;;19.13;;
6013;SDS011;3035;49.928;8.410;2022-11-30T08:08:36;44.90;;;18.30;;
6013;SDS011;3035;49.928;8.410;2022-11-30T08:11:03;56.77;;;21.00;;
6013;SDS011;3035;49.928;8.410;2022-11-30T08:13:32;55.20;;;19.80;;
6013;SDS011;3035;49.928;8.410;2022-11-30T08:16:03;53.00;;;19.60;;
6013;SDS011;3035;49.928;8.410;2022-11-30T08:18:30;44.33;;;18.40;;
6013;SDS011;3035;49.928;8.410;2022-11-30T08:20:59;58.87;;;19.33;;
6013;SDS011;3035;49.928;8.410;2022-11-30T08:23:27;52.63;;;19.10;;
6013;SDS011;3035;49.928;8.410;2022-11-30T08:25:57;46.80;;;18.17;;
6013;SDS011;3035;49.928;8.410;2022-11-30T08:28:25;48.80;;;16.50;;
6013;SDS011;3035;49.928;8.410;2022-11-30T08:30:57;42.20;;;15.97;;
6013;SDS011;3035;49.928;8.410;2022-11-30T08:33:25;45.80;;;17.87;;
6013;SDS011;3035;49.928;8.410;2022-11-30T08:35:54;38.27;;;15.87;;
6013;SDS011;3035;49.928;8.410;2022-11-30T08:38:22;56.73;;;16.30;;
6013;SDS011;3035;49.928;8.410;2022-11-30T08:40:55;43.30;;;16.37;;
6013;SDS011;3035;49.928;8.410;2022-11-30T08:43:20;48.93;;;15.87;;
6013;SDS011;3035;49.928;8.410;2022-11-30T08:45:48;69.07;;;16.00;;
6013;SDS011;3035;49.928;8.410;2022-11-30T08:48:17;45.40;;;15.80;;
6013;SDS011;3035;49.928;8.410;2022-11-30T08:50:45;43.57;;;16.33;;
6013;SDS011;3035;49.928;8.410;2022-11-30T08:53:13;46.27;;;16.40;;
6013;SDS011;3035;49.928;8.410;2022-11-30T08:55:42;47.63;;;17.77;;
6013;SDS011;3035;49.928;8.410;2022-11-30T08:58:10;40.60;;;16.77;;
6013;SDS011;3035;49.928;8.410;2022-11-30T09:00:39;53.10;;;16.90;;
6013;SDS011;3035;49.928;8.410;2022-11-30T09:03:07;38.37;;;15.03;;
6013;SDS011;3035;49.928;8.410;2022-11-30T09:05:35;43.70;;;18.57;;
6013;SDS011;3035;49.928;8.410;2022-11-30T09:08:04;48.70;;;17.07;;
6013;SDS011;3035;49.928;8.410;2022-11-30T09:10:32;42.50;;;16.80;;
6013;SDS011;3035;49.928;8.410;2022-11-30T09:13:02;41.87;;;17.37;;
6013;SDS011;3035;49.928;8.410;2022-11-30T09:15:30;46.37;;;16.97;;
6013;SDS011;3035;49.928;8.410;2022-11-30T09:17:58;43.87;;;17.93;;
6013;SDS011;3035;49.928;8.410;2022-11-30T09:20:27;45.73;;;17.20;;
6013;SDS011;3035;49.928;8.410;2022-11-30T09:22:57;49.83;;;17.47;;
6013;SDS011;3035;49.928;8.410;2022-11-30T09:25:23;38.37;;;15.50;;
6013;SDS011;3035;49.928;8.410;2022-11-30T09:27:52;40.37;;;15.87;;
6013;SDS011;3035;49.928;8.410;2022-11-30T09:30:21;48.93;;;17.60;;
6013;SDS011;3035;49.928;8.410;2022-11-30T09:32:49;40.20;;;14.30;;
6013;SDS011;3035;49.928;8.410;2022-11-30T09:35:17;44.33;;;14.93;;
6013;SDS011;3035;49.928;8.410;2022-11-30T09:37:46;49.97;;;17.77;;
6013;SDS011;3035;49.928;8.410;2022-11-30T09:40:15;44.83;;;16.83;;
6013;SDS011;3035;49.928;8.410;2022-11-30T09:42:46;56.97;;;17.00;;
6013;SDS011;3035;49.928;8.410;2022-11-30T09:45:24;53.40;;;18.30;;
6013;SDS011;3035;49.928;8.410;2022-11-30T09:48:01;50.33;;;18.90;;
6013;SDS011;3035;49.928;8.410;2022-11-30T09:50:50;47.23;;;17.73;;
6013;SDS011;3035;49.928;8.410;2022-11-30T09:53:23;46.40;;;16.30;;
6013;SDS011;3035;49.928;8.410;2022-11-30T09:55:52;45.53;;;16.73;;
6013;SDS011;3035;49.928;8.410;2022-11-30T09:58:29;42.77;;;16.43;;
6013;SDS011;3035;49.928;8.410;2022-11-30T10:00:54;41.00;;;15.53;;
6013;SDS011;3035;49.928;8.410;2022-11-30T10:03:23;41.33;;;16.77;;
6013;SDS011;3035;49.928;8.410;2022-11-30T10:06:02;43.90;;;15.27;;
6013;SDS011;3035;49.928;8.410;2022-11-30T10:14:39;48.63;;;16.80;;
6013;SDS011;3035;49.928;8.410;2022-11-30T10:28:35;45.80;;;18.20;;
6013;SDS011;3035;49.928;8.410;2022-11-30T10:31:10;43.80;;;18.40;;
6013;SDS011;3035;49.928;8.410;2022-11-30T10:33:44;36.47;;;15.87;;
6013;SDS011;3035;49.928;8.410;2022-11-30T10:36:23;40.77;;;17.07;;
6013;SDS011;3035;49.928;8.410;2022-11-30T10:38:43;32.20;;;15.23;;
6013;SDS011;3035;49.928;8.410;2022-11-30T10:41:14;33.23;;;15.97;;
6013;SDS011;3035;49.928;8.410;2022-11-30T10:43:52;37.97;;;16.20;;
6013;SDS011;3035;49.928;8.410;2022-11-30T10:46:37;42.20;;;18.97;;
6013;SDS011;3035;49.928;8.410;2022-11-30T10:49:07;38.20;;;17.03;;
6013;SDS011;3035;49.928;8.410;2022-11-30T10:51:35;35.43;;;17.17;;
6013;SDS011;3035;49.928;8.410;2022-11-30T10:54:04;41.37;;;18.40;;
6013;SDS011;3035;49.928;8.410;2022-11-30T10:56:34;43.30;;;19.70;;
6013;SDS011;3035;49.928;8.410;2022-11-30T10:59:08;40.00;;;18.70;;
6013;SDS011;3035;49.928;8.410;2022-11-30T11:01:37;28.37;;;15.07;;
6013;SDS011;3035;49.928;8.410;2022-11-30T11:04:08;40.77;;;17.87;;
6013;SDS011;3035;49.928;8.410;2022-11-30T11:06:45;40.10;;;17.80;;
6013;SDS011;3035;49.928;8.410;2022-11-30T11:09:22;33.80;;;18.10;;
6013;SDS011;3035;49.928;8.410;2022-11-30T11:12:15;39.20;;;18.53;;
6013;SDS011;3035;49.928;8.410;2022-11-30T11:14:43;25.60;;;14.87;;
6013;SDS011;3035;49.928;8.410;2022-11-30T11:19:51;42.07;;;16.70;;
6013;SDS011;3035;49.928;8.410;2022-11-30T11:22:20;30.97;;;17.40;;
6013;SDS011;3035;49.928;8.410;2022-11-30T11:24:48;40.97;;;17.77;;
6013;SDS011;3035;49.928;8.410;2022-11-30T11:27:26;35.80;;;18.47;;
6013;SDS011;3035;49.928;8.410;2022-11-30T11:30:03;28.17;;;17.00;;
6013;SDS011;3035;49.928;8.410;2022-11-30T11:35:44;36.07;;;18.27;;
6013;SDS011;3035;49.928;8.410;2022-11-30T11:38:18;35.47;;;19.70;;
6013;SDS011;3035;49.928;8.410;2022-11-30T11:40:50;37.03;;;18.67;;
6013;SDS011;3035;49.928;8.410;2022-11-30T11:43:20;30.47;;;18.53;;
6013;SDS011;3035;49.928;8.410;2022-11-30T11:45:50;41.40;;;18.83;;
6013;SDS011;3035;49.928;8.410;2022-11-30T11:48:32;34.90;;;16.70;;
6013;SDS011;3035;49.928;8.410;2022-11-30T11:51:03;32.87;;;18.50;;
6013;SDS011;3035;49.928;8.410;2022-11-30T11:53:42;30.40;;;16.77;;
6013;SDS011;3035;49.928;8.410;2022-11-30T11:56:19;30.37;;;15.83;;
6013;SDS011;3035;49.928;8.410;2022-11-30T11:58:56;29.37;;;16.37;;
6013;SDS011;3035;49.928;8.410;2022-11-30T12:01:36;31.43;;;16.00;;
6013;SDS011;3035;49.928;8.410;2022-11-30T12:04:15;28.90;;;15.70;;
6013;SDS011;3035;49.928;8.410;2022-11-30T12:06:55;30.40;;;18.93;;
6013;SDS011;3035;49.928;8.410;2022-11-30T12:09:27;30.73;;;18.57;;
6013;SDS011;3035;49.928;8.410;2022-11-30T12:11:53;27.83;;;16.63;;
6013;SDS011;3035;49.928;8.410;2022-11-30T12:14:23;30.23;;;16.60;;
6013;SDS011;3035;49.928;8.410;2022-11-30T12:19:45;31.40;;;16.07;;
6013;SDS011;3035;49.928;8.410;2022-11-30T12:22:25;29.70;;;16.10;;
6013;SDS011;3035;49.928;8.410;2022-11-30T12:25:17;25.50;;;15.03;;
6013;SDS011;3035;49.928;8.410;2022-11-30T12:27:51;26.20;;;14.93;;
6013;SDS011;3035;49.928;8.410;2022-11-30T12:30:21;28.03;;;15.20;;
6013;SDS011;3035;49.928;8.410;2022-11-30T12:32:55;27.60;;;15.20;;
6013;SDS011;3035;49.928;8.410;2022-11-30T12:38:05;36.07;;;17.80;;
6013;SDS011;3035;49.928;8.410;2022-11-30T12:40:45;31.50;;;17.03;;
6013;SDS011;3035;49.928;8.410;2022-11-30T12:43:30;36.57;;;16.90;;
6013;SDS011;3035;49.928;8.410;2022-11-30T12:45:58;28.13;;;15.03;;
6013;SDS011;3035;49.928;8.410;2022-11-30T12:48:29;25.10;;;15.20;;
6013;SDS011;3035;49.928;8.410;2022-11-30T12:53:55;27.03;;;15.50;;
6013;SDS011;3035;49.928;8.410;2022-11-30T12:59:06;32.13;;;16.53;;
6013;SDS011;3035;49.928;8.410;2022-11-30T13:04:20;36.80;;;17.03;;
6013;SDS011;3035;49.928;8.410;2022-11-30T13:07:10;38.10;;;18.70;;
6013;SDS011;3035;49.928;8.410;2022-11-30T13:09:37;47.63;;;22.33;;
6013;SDS011;3035;49.928;8.410;2022-11-30T13:12:09;48.87;;;19.93;;
6013;SDS011;3035;49.928;8.410;2022-11-30T13:14:37;42.00;;;18.47;;
6013;SDS011;3035;49.928;8.410;2022-11-30T13:17:06;44.53;;;20.20;;
6013;SDS011;3035;49.928;8.410;2022-11-30T13:19:43;45.80;;;21.67;;
6013;SDS011;3035;49.928;8.410;2022-11-30T13:22:19;61.03;;;29.60;;
6013;SDS011;3035;49.928;8.410;2022-11-30T13:24:49;46.33;;;21.30;;
6013;SDS011;3035;49.928;8.410;2022-11-30T13:27:21;43.80;;;21.93;;
6013;SDS011;3035;49.928;8.410;2022-11-30T13:29:50;49.87;;;19.10;;
6013;SDS011;3035;49.928;8.410;2022-11-30T13:32:18;41.53;;;17.00;;
6013;SDS011;3035;49.928;8.410;2022-11-30T13:34:46;36.90;;;18.03;;
6013;SDS011;3035;49.928;8.410;2022-11-30T13:37:21;41.50;;;19.07;;
6013;SDS011;3035;49.928;8.410;2022-11-30T13:39:52;35.50;;;18.73;;
6013;SDS011;3035;49.928;8.410;2022-11-30T13:42:29;38.57;;;19.33;;
6013;SDS011;3035;49.928;8.410;2022-11-30T13:45:17;30.77;;;17.60;;
6013;SDS011;3035;49.928;8.410;2022-11-30T13:47:52;34.70;;;17.23;;
6013;SDS011;3035;49.928;8.410;2022-11-30T13:53:05;34.07;;;15.90;;
6013;SDS011;3035;49.928;8.410;2022-11-30T13:58:22;37.37;;;17.50;;
6013;SDS011;3035;49.928;8.410;2022-11-30T14:03:29;33.97;;;17.03;;
6013;SDS011;3035;49.928;8.410;2022-11-30T14:05:57;32.83;;;16.60;;
6013;SDS011;3035;49.928;8.410;2022-11-30T14:08:34;27.70;;;15.00;;
6013;SDS011;3035;49.928;8.410;2022-11-30T14:14:31;30.00;;;15.53;;
6013;SDS011;3035;49.928;8.410;2022-11-30T14:16:58;32.10;;;16.87;;
6013;SDS011;3035;49.928;8.410;2022-11-30T14:19:26;33.90;;;15.97;;
6013;SDS011;3035;49.928;8.410;2022-11-30T14:21:54;27.50;;;14.20;;
6013;SDS011;3035;49.928;8.410;2022-11-30T14:24:22;38.07;;;16.47;;
6013;SDS011;3035;49.928;8.410;2022-11-30T14:26:51;27.63;;;15.57;;
6013;SDS011;3035;49.928;8.410;2022-11-30T14:29:20;32.80;;;16.67;;
6013;SDS011;3035;49.928;8.410;2022-11-30T14:31:51;32.87;;;16.37;;
6013;SDS011;3035;49.928;8.410;2022-11-30T14:34:28;33.13;;;17.30;;
6013;SDS011;3035;49.928;8.410;2022-11-30T14:36:59;36.07;;;16.87;;
6013;SDS011;3035;49.928;8.410;2022-11-30T14:39:31;32.90;;;16.10;;
6013;SDS011;3035;49.928;8.410;2022-11-30T14:41:59;32.77;;;16.60;;
6013;SDS011;3035;49.928;8.410;2022-11-30T14:44:27;28.10;;;16.20;;
6013;SDS011;3035;49.928;8.410;2022-11-30T14:46:55;29.50;;;15.77;;
6013;SDS011;3035;49.928;8.410;2022-11-30T14:49:24;26.63;;;15.20;;
6013;SDS011;3035;49.928;8.410;2022-11-30T14:51:57;26.60;;;15.43;;
6013;SDS011;3035;49.928;8.410;2022-11-30T14:54:29;26.33;;;16.00;;
6013;SDS011;3035;49.928;8.410;2022-11-30T14:56:56;26.27;;;14.17;;
6013;SDS011;3035;49.928;8.410;2022-11-30T14:59:27;28.83;;;16.63;;
6013;SDS011;3035;49.928;8.410;2022-11-30T15:01:59;26.67;;;16.90;;
6013;SDS011;3035;49.928;8.410;2022-11-30T15:04:28;28.67;;;16.20;;
6013;SDS011;3035;49.928;8.410;2022-11-30T15:06:56;30.90;;;14.63;;
6013;SDS011;3035;49.928;8.410;2022-11-30T15:09:27;24.77;;;14.37;;
6013;SDS011;3035;49.928;8.410;2022-11-30T15:11:55;22.57;;;12.47;;
6013;SDS011;3035;49.928;8.410;2022-11-30T15:14:23;22.83;;;13.63;;
6013;SDS011;3035;49.928;8.410;2022-11-30T15:16:53;26.10;;;13.87;;
6013;SDS011;3035;49.928;8.410;2022-11-30T15:19:25;25.63;;;14.27;;
6013;SDS011;3035;49.928;8.410;2022-11-30T15:21:54;26.90;;;13.97;;
6013;SDS011;3035;49.928;8.410;2022-11-30T15:24:22;26.20;;;14.50;;
6013;SDS011;3035;49.928;8.410;2022-11-30T15:26:54;22.13;;;12.87;;
6013;SDS011;3035;49.928;8.410;2022-11-30T15:29:25;26.27;;;14.23;;
6013;SDS011;3035;49.928;8.410;2022-11-30T15:31:55;20.50;;;12.73;;
6013;SDS011;3035;49.928;8.410;2022-11-30T15:34:28;21.80;;;13.40;;
6013;SDS011;3035;49.928;8.410;2022-11-30T15:36:59;24.20;;;13.70;;
6013;SDS011;3035;49.928;8.410;2022-11-30T15:39:27;19.07;;;12.27;;
6013;SDS011;3035;49.928;8.410;2022-11-30T15:41:57;22.33;;;13.33;;
6013;SDS011;3035;49.928;8.410;2022-11-30T15:44:25;22.33;;;13.33;;
6013;SDS011;3035;49.928;8.410;2022-11-30T15:46:54;25.13;;;13.97;;
6013;SDS011;3035;49.928;8.410;2022-11-30T15:49:23;25.63;;;12.63;;
6013;SDS011;3035;49.928;8.410;2022-11-30T15:52:05;24.00;;;13.00;;
6013;SDS011;3035;49.928;8.410;2022-11-30T15:54:44;26.90;;;14.17;;
6013;SDS011;3035;49.928;8.410;2022-11-30T15:57:15;27.40;;;13.40;;